sensor_id;sensor_type;location;lat;lon;timestamp;P1;durP1;ratioP1;P2;durP2;ratioP2
21418;SDS011;10870;51.384;10.316;2022-11-14T10:34:49;45.03;;;27.52;;
21418;SDS011;10870;51.384;10.316;2022-11-14T10:38:24;46.05;;;27.42;;
21418;SDS011;10870;51.384;10.316;2022-11-14T10:40:41;44.65;;;28.23;;
21418;SDS011;10870;51.384;10.316;2022-11-14T10:43:02;43.03;;;27.58;;
21418;SDS011;10870;51.384;10.316;2022-11-14T10:45:22;39.78;;;25.98;;
21418;SDS011;10870;51.384;10.316;2022-11-14T10:51:36;38.20;;;24.80;;
21418;SDS011;10870;51.384;10.316;2022-11-14T10:55:48;40.30;;;26.30;;
21418;SDS011;10870;51.384;10.316;2022-11-14T10:57:50;41.85;;;26.85;;
21418;SDS011;10870;51.384;10.316;2022-11-14T10:59:52;41.15;;;25.30;;
21418;SDS011;10870;51.384;10.316;2022-11-14T11:01:55;43.05;;;28.13;;
21418;SDS011;10870;51.384;10.316;2022-11-14T11:04:11;39.10;;;25.55;;
21418;SDS011;10870;51.384;10.316;2022-11-14T11:06:25;38.95;;;25.67;;
21418;SDS011;10870;51.384;10.316;2022-11-14T11:08:31;46.35;;;28.92;;
21418;SDS011;10870;51.384;10.316;2022-11-14T11:10:58;40.42;;;26.27;;
21418;SDS011;10870;51.384;10.316;2022-11-14T11:13:33;42.17;;;27.02;;
21418;SDS011;10870;51.384;10.316;2022-11-14T11:15:43;38.65;;;25.38;;
21418;SDS011;10870;51.384;10.316;2022-11-14T11:20:43;36.95;;;25.73;;
21418;SDS011;10870;51.384;10.316;2022-11-14T11:22:34;40.42;;;26.30;;
21418;SDS011;10870;51.384;10.316;2022-11-14T11:27:45;39.45;;;25.13;;
21418;SDS011;10870;51.384;10.316;2022-11-14T11:30:21;41.30;;;26.38;;
21418;SDS011;10870;51.384;10.316;2022-11-14T11:32:29;32.58;;;23.02;;
21418;SDS011;10870;51.384;10.316;2022-11-14T11:34:39;38.88;;;25.67;;
21418;SDS011;10870;51.384;10.316;2022-11-14T11:36:57;39.17;;;26.13;;
21418;SDS011;10870;51.384;10.316;2022-11-14T11:39:11;35.38;;;24.27;;
21418;SDS011;10870;51.384;10.316;2022-11-14T11:41:29;39.65;;;25.95;;
21418;SDS011;10870;51.384;10.316;2022-11-14T11:43:53;42.25;;;26.10;;
21418;SDS011;10870;51.384;10.316;2022-11-14T11:46:10;43.08;;;25.67;;
21418;SDS011;10870;51.384;10.316;2022-11-14T11:51:34;39.17;;;24.92;;
21418;SDS011;10870;51.384;10.316;2022-11-14T11:57:17;40.25;;;24.10;;
21418;SDS011;10870;51.384;10.316;2022-11-14T12:04:49;39.75;;;25.98;;
21418;SDS011;10870;51.384;10.316;2022-11-14T12:09:57;43.40;;;26.83;;
21418;SDS011;10870;51.384;10.316;2022-11-14T12:23:33;38.72;;;26.10;;
21418;SDS011;10870;51.384;10.316;2022-11-14T12:30:59;36.47;;;24.92;;
21418;SDS011;10870;51.384;10.316;2022-11-14T12:35:46;37.92;;;25.63;;
21418;SDS011;10870;51.384;10.316;2022-11-14T12:37:55;36.63;;;25.00;;
21418;SDS011;10870;51.384;10.316;2022-11-14T12:40:05;35.63;;;24.60;;
21418;SDS011;10870;51.384;10.316;2022-11-14T12:42:10;37.03;;;24.98;;
21418;SDS011;10870;51.384;10.316;2022-11-14T12:51:48;38.55;;;25.40;;
21418;SDS011;10870;51.384;10.316;2022-11-14T12:53:50;38.47;;;26.17;;
21418;SDS011;10870;51.384;10.316;2022-11-14T12:56:06;42.65;;;25.88;;
21418;SDS011;10870;51.384;10.316;2022-11-14T13:00:20;42.35;;;27.50;;
21418;SDS011;10870;51.384;10.316;2022-11-14T13:04:27;38.33;;;26.13;;
21418;SDS011;10870;51.384;10.316;2022-11-14T13:13:54;37.55;;;26.35;;
21418;SDS011;10870;51.384;10.316;2022-11-14T13:16:28;36.20;;;26.10;;
21418;SDS011;10870;51.384;10.316;2022-11-14T13:18:58;35.95;;;25.05;;
21418;SDS011;10870;51.384;10.316;2022-11-14T13:21:29;36.70;;;24.15;;
21418;SDS011;10870;51.384;10.316;2022-11-14T13:23:53;34.95;;;24.40;;
21418;SDS011;10870;51.384;10.316;2022-11-14T13:32:57;36.47;;;26.92;;
21418;SDS011;10870;51.384;10.316;2022-11-14T13:37:43;42.50;;;26.52;;
21418;SDS011;10870;51.384;10.316;2022-11-14T13:46:55;37.58;;;24.85;;
21418;SDS011;10870;51.384;10.316;2022-11-14T13:49:08;38.42;;;26.80;;
21418;SDS011;10870;51.384;10.316;2022-11-14T13:51:13;38.03;;;24.33;;
21418;SDS011;10870;51.384;10.316;2022-11-14T13:53:19;37.50;;;26.73;;
21418;SDS011;10870;51.384;10.316;2022-11-14T13:57:43;34.53;;;24.13;;
21418;SDS011;10870;51.384;10.316;2022-11-14T14:06:21;33.72;;;22.90;;
21418;SDS011;10870;51.384;10.316;2022-11-14T14:15:06;36.63;;;22.13;;
21418;SDS011;10870;51.384;10.316;2022-11-14T14:19:21;33.17;;;23.02;;
21418;SDS011;10870;51.384;10.316;2022-11-14T14:21:51;40.60;;;23.98;;
21418;SDS011;10870;51.384;10.316;2022-11-14T14:26:53;43.95;;;25.30;;
21418;SDS011;10870;51.384;10.316;2022-11-14T14:29:27;40.05;;;25.25;;
21418;SDS011;10870;51.384;10.316;2022-11-14T14:31:36;37.85;;;26.08;;
21418;SDS011;10870;51.384;10.316;2022-11-14T14:33:50;38.58;;;26.42;;
21418;SDS011;10870;51.384;10.316;2022-11-14T14:35:58;38.08;;;25.83;;
21418;SDS011;10870;51.384;10.316;2022-11-14T14:38:00;39.70;;;25.65;;
21418;SDS011;10870;51.384;10.316;2022-11-14T14:40:03;38.65;;;25.05;;
21418;SDS011;10870;51.384;10.316;2022-11-14T14:42:09;39.05;;;26.20;;
21418;SDS011;10870;51.384;10.316;2022-11-14T14:46:43;39.72;;;27.75;;
21418;SDS011;10870;51.384;10.316;2022-11-14T14:48:45;40.00;;;27.65;;
21418;SDS011;10870;51.384;10.316;2022-11-14T14:50:53;43.20;;;27.40;;
21418;SDS011;10870;51.384;10.316;2022-11-14T14:52:59;37.35;;;26.15;;
21418;SDS011;10870;51.384;10.316;2022-11-14T14:55:03;37.85;;;25.27;;
21418;SDS011;10870;51.384;10.316;2022-11-14T14:57:14;47.25;;;29.55;;
21418;SDS011;10870;51.384;10.316;2022-11-14T14:59:22;45.15;;;29.27;;
21418;SDS011;10870;51.384;10.316;2022-11-14T15:01:30;47.35;;;29.48;;
21418;SDS011;10870;51.384;10.316;2022-11-14T15:03:34;44.30;;;29.48;;
21418;SDS011;10870;51.384;10.316;2022-11-14T15:05:40;42.15;;;27.77;;
21418;SDS011;10870;51.384;10.316;2022-11-14T15:08:17;35.58;;;24.95;;
21418;SDS011;10870;51.384;10.316;2022-11-14T15:10:29;42.53;;;26.02;;
21418;SDS011;10870;51.384;10.316;2022-11-14T15:12:42;36.58;;;25.33;;
21418;SDS011;10870;51.384;10.316;2022-11-14T15:14:49;46.20;;;31.83;;
21418;SDS011;10870;51.384;10.316;2022-11-14T15:16:58;46.22;;;30.90;;
21418;SDS011;10870;51.384;10.316;2022-11-14T15:19:02;46.50;;;31.27;;
21418;SDS011;10870;51.384;10.316;2022-11-14T15:23:27;47.40;;;32.08;;
21418;SDS011;10870;51.384;10.316;2022-11-14T15:25:30;52.17;;;35.53;;
21418;SDS011;10870;51.384;10.316;2022-11-14T15:27:32;67.82;;;42.30;;
21418;SDS011;10870;51.384;10.316;2022-11-14T15:29:33;53.67;;;34.83;;
21418;SDS011;10870;51.384;10.316;2022-11-14T15:31:42;56.10;;;35.95;;
21418;SDS011;10870;51.384;10.316;2022-11-14T15:34:02;48.55;;;32.47;;
21418;SDS011;10870;51.384;10.316;2022-11-14T15:36:17;49.42;;;33.58;;
21418;SDS011;10870;51.384;10.316;2022-11-14T15:38:22;58.80;;;38.30;;
21418;SDS011;10870;51.384;10.316;2022-11-14T15:40:31;63.35;;;38.40;;
21418;SDS011;10870;51.384;10.316;2022-11-14T15:42:36;65.15;;;39.78;;
21418;SDS011;10870;51.384;10.316;2022-11-14T15:44:43;68.00;;;42.55;;
21418;SDS011;10870;51.384;10.316;2022-11-14T15:46:48;56.45;;;36.83;;
21418;SDS011;10870;51.384;10.316;2022-11-14T15:49:20;53.47;;;35.13;;
21418;SDS011;10870;51.384;10.316;2022-11-14T15:53:55;54.40;;;36.33;;
21418;SDS011;10870;51.384;10.316;2022-11-14T15:56:17;54.85;;;34.38;;
21418;SDS011;10870;51.384;10.316;2022-11-14T15:58:21;52.20;;;33.95;;
21418;SDS011;10870;51.384;10.316;2022-11-14T16:00:36;57.38;;;35.88;;
21418;SDS011;10870;51.384;10.316;2022-11-14T16:03:03;52.90;;;31.13;;
21418;SDS011;10870;51.384;10.316;2022-11-14T16:07:55;55.53;;;34.42;;
21418;SDS011;10870;51.384;10.316;2022-11-14T16:09:57;50.20;;;33.47;;
21418;SDS011;10870;51.384;10.316;2022-11-14T16:12:01;54.17;;;33.85;;
21418;SDS011;10870;51.384;10.316;2022-11-14T16:14:03;57.78;;;35.17;;
21418;SDS011;10870;51.384;10.316;2022-11-14T16:16:24;55.42;;;34.25;;
21418;SDS011;10870;51.384;10.316;2022-11-14T16:18:29;63.05;;;34.78;;
21418;SDS011;10870;51.384;10.316;2022-11-14T16:20:32;60.15;;;34.88;;
21418;SDS011;10870;51.384;10.316;2022-11-14T16:22:37;76.43;;;46.70;;
21418;SDS011;10870;51.384;10.316;2022-11-14T16:24:39;70.10;;;45.83;;
21418;SDS011;10870;51.384;10.316;2022-11-14T16:26:40;57.60;;;35.70;;
21418;SDS011;10870;51.384;10.316;2022-11-14T16:28:48;56.08;;;34.08;;
21418;SDS011;10870;51.384;10.316;2022-11-14T16:30:52;56.10;;;34.53;;
21418;SDS011;10870;51.384;10.316;2022-11-14T16:33:04;57.55;;;35.00;;
21418;SDS011;10870;51.384;10.316;2022-11-14T16:35:15;55.22;;;33.20;;
21418;SDS011;10870;51.384;10.316;2022-11-14T16:37:24;57.08;;;33.55;;
21418;SDS011;10870;51.384;10.316;2022-11-14T16:39:28;55.38;;;35.10;;
21418;SDS011;10870;51.384;10.316;2022-11-14T16:41:42;48.55;;;32.63;;
21418;SDS011;10870;51.384;10.316;2022-11-14T16:43:46;61.30;;;36.13;;
21418;SDS011;10870;51.384;10.316;2022-11-14T16:45:51;56.30;;;35.42;;
21418;SDS011;10870;51.384;10.316;2022-11-14T16:47:59;52.20;;;34.42;;
21418;SDS011;10870;51.384;10.316;2022-11-14T16:50:06;53.88;;;38.00;;
21418;SDS011;10870;51.384;10.316;2022-11-14T16:52:11;56.88;;;37.60;;
21418;SDS011;10870;51.384;10.316;2022-11-14T16:54:17;52.42;;;33.92;;
21418;SDS011;10870;51.384;10.316;2022-11-14T16:56:24;51.75;;;34.90;;
21418;SDS011;10870;51.384;10.316;2022-11-14T16:58:26;53.95;;;37.60;;
21418;SDS011;10870;51.384;10.316;2022-11-14T17:00:33;52.92;;;33.33;;
21418;SDS011;10870;51.384;10.316;2022-11-14T17:02:41;51.08;;;35.38;;
21418;SDS011;10870;51.384;10.316;2022-11-14T17:04:46;50.80;;;32.08;;
21418;SDS011;10870;51.384;10.316;2022-11-14T17:06:50;53.00;;;34.60;;
21418;SDS011;10870;51.384;10.316;2022-11-14T17:08:53;48.17;;;32.78;;
21418;SDS011;10870;51.384;10.316;2022-11-14T17:11:05;46.03;;;30.50;;
21418;SDS011;10870;51.384;10.316;2022-11-14T17:13:19;44.80;;;31.08;;
21418;SDS011;10870;51.384;10.316;2022-11-14T17:15:30;55.63;;;35.33;;
21418;SDS011;10870;51.384;10.316;2022-11-14T17:17:31;50.33;;;34.83;;
21418;SDS011;10870;51.384;10.316;2022-11-14T17:19:44;50.95;;;34.13;;
21418;SDS011;10870;51.384;10.316;2022-11-14T17:21:46;57.38;;;36.92;;
21418;SDS011;10870;51.384;10.316;2022-11-14T17:26:09;54.30;;;34.05;;
21418;SDS011;10870;51.384;10.316;2022-11-14T17:28:13;45.10;;;30.58;;
21418;SDS011;10870;51.384;10.316;2022-11-14T17:30:20;46.03;;;32.28;;
21418;SDS011;10870;51.384;10.316;2022-11-14T17:32:32;56.15;;;36.03;;
21418;SDS011;10870;51.384;10.316;2022-11-14T17:34:39;51.55;;;37.63;;
21418;SDS011;10870;51.384;10.316;2022-11-14T17:36:41;47.58;;;34.25;;
21418;SDS011;10870;51.384;10.316;2022-11-14T17:38:45;48.72;;;32.63;;
21418;SDS011;10870;51.384;10.316;2022-11-14T17:41:04;46.55;;;30.83;;
21418;SDS011;10870;51.384;10.316;2022-11-14T17:43:08;53.65;;;34.35;;
21418;SDS011;10870;51.384;10.316;2022-11-14T17:45:19;45.50;;;34.03;;
21418;SDS011;10870;51.384;10.316;2022-11-14T17:47:26;46.33;;;33.08;;
21418;SDS011;10870;51.384;10.316;2022-11-14T17:49:35;47.70;;;34.25;;
21418;SDS011;10870;51.384;10.316;2022-11-14T17:51:47;65.35;;;43.72;;
21418;SDS011;10870;51.384;10.316;2022-11-14T17:53:51;65.70;;;49.47;;
21418;SDS011;10870;51.384;10.316;2022-11-14T17:56:01;56.60;;;37.47;;
21418;SDS011;10870;51.384;10.316;2022-11-14T17:58:03;55.67;;;35.40;;
21418;SDS011;10870;51.384;10.316;2022-11-14T18:00:04;57.17;;;37.42;;
21418;SDS011;10870;51.384;10.316;2022-11-14T18:02:14;49.72;;;33.33;;
21418;SDS011;10870;51.384;10.316;2022-11-14T18:04:20;45.28;;;31.20;;
21418;SDS011;10870;51.384;10.316;2022-11-14T18:06:26;47.78;;;32.50;;
21418;SDS011;10870;51.384;10.316;2022-11-14T18:08:30;53.08;;;33.28;;
21418;SDS011;10870;51.384;10.316;2022-11-14T18:10:32;47.55;;;31.60;;
21418;SDS011;10870;51.384;10.316;2022-11-14T18:12:36;56.22;;;42.53;;
21418;SDS011;10870;51.384;10.316;2022-11-14T18:14:46;49.05;;;35.88;;
21418;SDS011;10870;51.384;10.316;2022-11-14T18:16:51;50.50;;;34.03;;
21418;SDS011;10870;51.384;10.316;2022-11-14T18:18:58;45.17;;;30.17;;
21418;SDS011;10870;51.384;10.316;2022-11-14T18:21:05;50.03;;;32.72;;
21418;SDS011;10870;51.384;10.316;2022-11-14T18:23:12;42.83;;;29.48;;
21418;SDS011;10870;51.384;10.316;2022-11-14T18:25:14;43.03;;;28.92;;
21418;SDS011;10870;51.384;10.316;2022-11-14T18:27:15;42.72;;;30.27;;
21418;SDS011;10870;51.384;10.316;2022-11-14T18:29:16;42.00;;;27.67;;
21418;SDS011;10870;51.384;10.316;2022-11-14T18:31:29;53.20;;;39.63;;
21418;SDS011;10870;51.384;10.316;2022-11-14T18:33:37;51.10;;;34.13;;
21418;SDS011;10870;51.384;10.316;2022-11-14T18:35:45;45.22;;;31.45;;
21418;SDS011;10870;51.384;10.316;2022-11-14T18:37:57;45.40;;;31.08;;
21418;SDS011;10870;51.384;10.316;2022-11-14T18:40:05;45.35;;;29.67;;
21418;SDS011;10870;51.384;10.316;2022-11-14T18:42:15;40.10;;;26.60;;
21418;SDS011;10870;51.384;10.316;2022-11-14T18:44:43;38.58;;;27.77;;
21418;SDS011;10870;51.384;10.316;2022-11-14T18:46:44;42.08;;;27.27;;
21418;SDS011;10870;51.384;10.316;2022-11-14T18:48:46;38.88;;;26.75;;
21418;SDS011;10870;51.384;10.316;2022-11-14T18:50:51;40.92;;;26.13;;
21418;SDS011;10870;51.384;10.316;2022-11-14T18:55:37;57.35;;;40.78;;
21418;SDS011;10870;51.384;10.316;2022-11-14T18:57:39;45.92;;;30.48;;
21418;SDS011;10870;51.384;10.316;2022-11-14T18:59:51;38.22;;;28.88;;
21418;SDS011;10870;51.384;10.316;2022-11-14T19:01:55;42.88;;;29.33;;
21418;SDS011;10870;51.384;10.316;2022-11-14T19:04:06;45.60;;;29.38;;
21418;SDS011;10870;51.384;10.316;2022-11-14T19:06:34;48.63;;;30.58;;
21418;SDS011;10870;51.384;10.316;2022-11-14T19:08:44;45.08;;;28.85;;
21418;SDS011;10870;51.384;10.316;2022-11-14T19:10:58;48.13;;;29.60;;
21418;SDS011;10870;51.384;10.316;2022-11-14T19:13:10;44.55;;;30.00;;
21418;SDS011;10870;51.384;10.316;2022-11-14T19:15:14;47.03;;;30.10;;
21418;SDS011;10870;51.384;10.316;2022-11-14T19:17:18;45.58;;;30.42;;
21418;SDS011;10870;51.384;10.316;2022-11-14T19:19:32;46.33;;;30.20;;
21418;SDS011;10870;51.384;10.316;2022-11-14T19:21:39;44.53;;;29.50;;
21418;SDS011;10870;51.384;10.316;2022-11-14T19:23:43;45.35;;;30.00;;
21418;SDS011;10870;51.384;10.316;2022-11-14T19:28:00;49.50;;;30.92;;
21418;SDS011;10870;51.384;10.316;2022-11-14T19:30:06;51.53;;;36.95;;
21418;SDS011;10870;51.384;10.316;2022-11-14T19:32:13;50.72;;;36.70;;
21418;SDS011;10870;51.384;10.316;2022-11-14T19:34:14;50.17;;;35.05;;
21418;SDS011;10870;51.384;10.316;2022-11-14T19:36:25;43.33;;;27.45;;
21418;SDS011;10870;51.384;10.316;2022-11-14T19:38:27;42.17;;;29.08;;
21418;SDS011;10870;51.384;10.316;2022-11-14T19:40:47;41.17;;;27.60;;
21418;SDS011;10870;51.384;10.316;2022-11-14T19:42:57;40.55;;;27.95;;
21418;SDS011;10870;51.384;10.316;2022-11-14T19:45:01;44.72;;;29.27;;
21418;SDS011;10870;51.384;10.316;2022-11-14T19:47:03;48.22;;;34.05;;
21418;SDS011;10870;51.384;10.316;2022-11-14T19:49:04;58.83;;;42.83;;
21418;SDS011;10870;51.384;10.316;2022-11-14T19:51:20;42.60;;;28.35;;
21418;SDS011;10870;51.384;10.316;2022-11-14T19:53:35;49.80;;;31.17;;
21418;SDS011;10870;51.384;10.316;2022-11-14T19:55:39;44.72;;;30.50;;
21418;SDS011;10870;51.384;10.316;2022-11-14T19:57:43;42.53;;;28.85;;
21418;SDS011;10870;51.384;10.316;2022-11-14T19:59:45;46.67;;;27.92;;
21418;SDS011;10870;51.384;10.316;2022-11-14T20:01:50;40.13;;;28.45;;
21418;SDS011;10870;51.384;10.316;2022-11-14T20:04:01;43.38;;;29.17;;
21418;SDS011;10870;51.384;10.316;2022-11-14T20:06:13;46.67;;;29.23;;
21418;SDS011;10870;51.384;10.316;2022-11-14T20:08:30;38.72;;;27.35;;
21418;SDS011;10870;51.384;10.316;2022-11-14T20:10:39;45.33;;;28.88;;
21418;SDS011;10870;51.384;10.316;2022-11-14T20:12:59;43.28;;;28.20;;
21418;SDS011;10870;51.384;10.316;2022-11-14T20:15:06;45.20;;;28.77;;
21418;SDS011;10870;51.384;10.316;2022-11-14T20:17:11;32.13;;;20.88;;
21418;SDS011;10870;51.384;10.316;2022-11-14T20:19:23;42.72;;;27.45;;
21418;SDS011;10870;51.384;10.316;2022-11-14T20:21:29;40.25;;;27.33;;
21418;SDS011;10870;51.384;10.316;2022-11-14T20:23:42;45.60;;;29.08;;
21418;SDS011;10870;51.384;10.316;2022-11-14T20:25:49;44.53;;;28.10;;
21418;SDS011;10870;51.384;10.316;2022-11-14T20:28:13;39.45;;;26.40;;
21418;SDS011;10870;51.384;10.316;2022-11-14T20:30:22;39.05;;;25.55;;
21418;SDS011;10870;51.384;10.316;2022-11-14T20:32:26;41.20;;;26.83;;
21418;SDS011;10870;51.384;10.316;2022-11-14T20:36:46;41.22;;;26.27;;
21418;SDS011;10870;51.384;10.316;2022-11-14T20:38:48;38.33;;;27.33;;
21418;SDS011;10870;51.384;10.316;2022-11-14T20:41:02;43.35;;;30.65;;
21418;SDS011;10870;51.384;10.316;2022-11-14T20:43:04;54.70;;;37.65;;
21418;SDS011;10870;51.384;10.316;2022-11-14T20:45:06;43.30;;;28.80;;
21418;SDS011;10870;51.384;10.316;2022-11-14T20:47:15;40.85;;;27.65;;
21418;SDS011;10870;51.384;10.316;2022-11-14T20:49:25;40.45;;;25.52;;
21418;SDS011;10870;51.384;10.316;2022-11-14T20:51:27;39.13;;;25.30;;
21418;SDS011;10870;51.384;10.316;2022-11-14T20:53:32;41.38;;;26.08;;
21418;SDS011;10870;51.384;10.316;2022-11-14T20:55:37;39.28;;;26.17;;
21418;SDS011;10870;51.384;10.316;2022-11-14T20:57:46;41.72;;;25.77;;
21418;SDS011;10870;51.384;10.316;2022-11-14T20:59:53;34.72;;;23.85;;
21418;SDS011;10870;51.384;10.316;2022-11-14T21:01:57;40.00;;;24.48;;
21418;SDS011;10870;51.384;10.316;2022-11-14T21:03:59;39.65;;;23.83;;
21418;SDS011;10870;51.384;10.316;2022-11-14T21:06:06;35.90;;;24.75;;
21418;SDS011;10870;51.384;10.316;2022-11-14T21:08:13;39.63;;;25.00;;
21418;SDS011;10870;51.384;10.316;2022-11-14T21:10:17;38.53;;;26.08;;
21418;SDS011;10870;51.384;10.316;2022-11-14T21:12:49;36.30;;;24.25;;
21418;SDS011;10870;51.384;10.316;2022-11-14T21:15:16;38.60;;;25.15;;
21418;SDS011;10870;51.384;10.316;2022-11-14T21:17:26;51.97;;;23.70;;
21418;SDS011;10870;51.384;10.316;2022-11-14T21:19:31;37.30;;;23.73;;
21418;SDS011;10870;51.384;10.316;2022-11-14T21:21:35;37.22;;;23.48;;
21418;SDS011;10870;51.384;10.316;2022-11-14T21:23:36;33.92;;;23.38;;
21418;SDS011;10870;51.384;10.316;2022-11-14T21:25:39;34.72;;;22.52;;
21418;SDS011;10870;51.384;10.316;2022-11-14T21:27:40;33.72;;;22.42;;
21418;SDS011;10870;51.384;10.316;2022-11-14T21:29:44;38.97;;;24.98;;
21418;SDS011;10870;51.384;10.316;2022-11-14T21:31:47;35.42;;;25.52;;
21418;SDS011;10870;51.384;10.316;2022-11-14T21:33:53;35.28;;;23.27;;
21418;SDS011;10870;51.384;10.316;2022-11-14T21:35:56;30.30;;;21.88;;
21418;SDS011;10870;51.384;10.316;2022-11-14T21:37:59;30.92;;;22.75;;
21418;SDS011;10870;51.384;10.316;2022-11-14T21:40:11;30.98;;;21.60;;
21418;SDS011;10870;51.384;10.316;2022-11-14T21:42:17;34.50;;;22.83;;
21418;SDS011;10870;51.384;10.316;2022-11-14T21:44:37;34.58;;;23.35;;
21418;SDS011;10870;51.384;10.316;2022-11-14T21:46:41;30.40;;;21.60;;
21418;SDS011;10870;51.384;10.316;2022-11-14T21:48:44;30.02;;;21.27;;
21418;SDS011;10870;51.384;10.316;2022-11-14T21:50:53;29.15;;;18.45;;
21418;SDS011;10870;51.384;10.316;2022-11-14T21:52:56;33.20;;;22.45;;
21418;SDS011;10870;51.384;10.316;2022-11-14T21:54:57;30.15;;;21.35;;
21418;SDS011;10870;51.384;10.316;2022-11-14T21:57:01;32.70;;;22.63;;
21418;SDS011;10870;51.384;10.316;2022-11-14T21:59:07;33.60;;;22.08;;
21418;SDS011;10870;51.384;10.316;2022-11-14T22:01:20;31.75;;;22.80;;
21418;SDS011;10870;51.384;10.316;2022-11-14T22:03:45;32.00;;;20.55;;
21418;SDS011;10870;51.384;10.316;2022-11-14T22:06:12;34.00;;;24.08;;
21418;SDS011;10870;51.384;10.316;2022-11-14T22:08:20;32.20;;;21.45;;
21418;SDS011;10870;51.384;10.316;2022-11-14T22:10:29;29.08;;;20.90;;
21418;SDS011;10870;51.384;10.316;2022-11-14T22:12:51;29.48;;;21.67;;
21418;SDS011;10870;51.384;10.316;2022-11-14T22:14:55;31.98;;;21.83;;
21418;SDS011;10870;51.384;10.316;2022-11-14T22:19:22;29.55;;;20.80;;
21418;SDS011;10870;51.384;10.316;2022-11-14T22:21:24;28.02;;;20.52;;
21418;SDS011;10870;51.384;10.316;2022-11-14T22:23:26;31.50;;;22.13;;
21418;SDS011;10870;51.384;10.316;2022-11-14T22:25:30;33.70;;;22.15;;
21418;SDS011;10870;51.384;10.316;2022-11-14T22:27:35;34.38;;;23.65;;
21418;SDS011;10870;51.384;10.316;2022-11-14T22:29:46;33.50;;;23.02;;
21418;SDS011;10870;51.384;10.316;2022-11-14T22:31:50;34.45;;;24.70;;
21418;SDS011;10870;51.384;10.316;2022-11-14T22:33:58;31.00;;;22.67;;
21418;SDS011;10870;51.384;10.316;2022-11-14T22:36:23;34.00;;;23.38;;
21418;SDS011;10870;51.384;10.316;2022-11-14T22:38:30;34.58;;;23.40;;
21418;SDS011;10870;51.384;10.316;2022-11-14T22:40:35;31.42;;;22.75;;
21418;SDS011;10870;51.384;10.316;2022-11-14T22:42:37;35.05;;;24.15;;
21418;SDS011;10870;51.384;10.316;2022-11-14T22:44:44;34.47;;;22.52;;
21418;SDS011;10870;51.384;10.316;2022-11-14T22:46:55;32.60;;;23.23;;
21418;SDS011;10870;51.384;10.316;2022-11-14T22:49:05;34.63;;;23.90;;
21418;SDS011;10870;51.384;10.316;2022-11-14T22:51:17;33.20;;;22.58;;
21418;SDS011;10870;51.384;10.316;2022-11-14T22:56:00;28.48;;;20.92;;
21418;SDS011;10870;51.384;10.316;2022-11-14T22:58:02;36.17;;;23.45;;
21418;SDS011;10870;51.384;10.316;2022-11-14T23:00:10;31.38;;;22.10;;
21418;SDS011;10870;51.384;10.316;2022-11-14T23:02:23;30.25;;;22.27;;
21418;SDS011;10870;51.384;10.316;2022-11-14T23:04:40;33.13;;;22.92;;
21418;SDS011;10870;51.384;10.316;2022-11-14T23:08:55;34.22;;;21.88;;
21418;SDS011;10870;51.384;10.316;2022-11-14T23:11:00;33.38;;;23.83;;
21418;SDS011;10870;51.384;10.316;2022-11-14T23:13:07;32.83;;;22.10;;
21418;SDS011;10870;51.384;10.316;2022-11-14T23:15:09;32.65;;;22.95;;
21418;SDS011;10870;51.384;10.316;2022-11-14T23:17:15;37.85;;;25.20;;
21418;SDS011;10870;51.384;10.316;2022-11-14T23:19:27;32.83;;;23.30;;
21418;SDS011;10870;51.384;10.316;2022-11-14T23:21:42;32.78;;;22.58;;
21418;SDS011;10870;51.384;10.316;2022-11-14T23:23:58;29.05;;;22.35;;
21418;SDS011;10870;51.384;10.316;2022-11-14T23:26:01;30.58;;;21.42;;
21418;SDS011;10870;51.384;10.316;2022-11-14T23:28:10;29.02;;;20.23;;
21418;SDS011;10870;51.384;10.316;2022-11-14T23:30:12;29.13;;;20.67;;
21418;SDS011;10870;51.384;10.316;2022-11-14T23:32:14;29.98;;;21.63;;
21418;SDS011;10870;51.384;10.316;2022-11-14T23:34:19;30.17;;;20.35;;
21418;SDS011;10870;51.384;10.316;2022-11-14T23:36:27;31.92;;;21.92;;
21418;SDS011;10870;51.384;10.316;2022-11-14T23:38:34;31.95;;;21.10;;
21418;SDS011;10870;51.384;10.316;2022-11-14T23:40:43;28.23;;;20.95;;
21418;SDS011;10870;51.384;10.316;2022-11-14T23:42:55;32.55;;;21.25;;
21418;SDS011;10870;51.384;10.316;2022-11-14T23:45:04;29.10;;;20.88;;
21418;SDS011;10870;51.384;10.316;2022-11-14T23:47:24;32.75;;;22.35;;
21418;SDS011;10870;51.384;10.316;2022-11-14T23:49:26;32.30;;;23.23;;
21418;SDS011;10870;51.384;10.316;2022-11-14T23:51:28;29.08;;;21.45;;
21418;SDS011;10870;51.384;10.316;2022-11-14T23:53:32;29.33;;;21.08;;
21418;SDS011;10870;51.384;10.316;2022-11-14T23:55:37;23.08;;;17.50;;
21418;SDS011;10870;51.384;10.316;2022-11-14T23:57:38;22.73;;;16.25;;
21418;SDS011;10870;51.384;10.316;2022-11-14T23:59:48;22.95;;;16.70;;
